Scout — WCZ5277 — position and weather

sailwx.info

Track history (hours):
 
Tides and Currents Weather Stations Pressure Air Temp Water Temp Dewpoint Dewpoint Depression Visibility Wind Speed Wind Dir Waves Ship Positions

Scout

Owner: ERGON MARINE & INDUSTRIAL SUPPLY, VICKSBURG, MS. More information available from US FCC via Universal Licensing System.

Last reported at 2017-Feb-25 20:33 UTC. Time now 2017-Feb-25 20:48 UTC.
Position N 32°20' W 090°54'.

Length 14 m.

Type: Towing. MMSI: 367402890.

Date/timePositionNaut miles runAvg speedWind from/ knotsBaromVisibWave heightAir tempDewpointWater temp
2017-Feb-25 20:33N 32°20' W 090°54'0 0.0
2017-Feb-25 19:34N 32°20' W 090°54'1 1.5
2017-Feb-25 18:33N 32°18' W 090°55'1 0.9
2017-Feb-25 17:33N 32°19' W 090°54'2 1.5
2017-Feb-25 16:34N 32°18' W 090°55'2 2.2
2017-Feb-25 15:33N 32°20' W 090°54'1 0.8
2017-Feb-25 14:33N 32°20' W 090°54'0 0.0
2017-Feb-25 10:33N 32°20' W 090°54'1 0.9
2017-Feb-25 09:33N 32°21' W 090°55'2 1.5
2017-Feb-25 08:34N 32°20' W 090°54'0 0.0
2017-Feb-25 07:33N 32°20' W 090°54'0 0.0
2017-Feb-25 06:33N 32°20' W 090°54'0 0.4
2017-Feb-25 05:33N 32°19' W 090°54'0 0.3
2017-Feb-25 04:33N 32°20' W 090°54'  
2017-Feb-18 22:33N 32°20' W 090°54'1 0.8
2017-Feb-18 21:33N 32°21' W 090°53'1 1.2
2017-Feb-18 20:34N 32°22' W 090°53'1 1.2
2017-Feb-18 19:33N 32°23' W 090°53'0 0.0
2017-Feb-18 18:33N 32°23' W 090°53'0 0.0
2017-Feb-18 17:33N 32°23' W 090°53'0 0.0
2017-Feb-18 16:33N 32°23' W 090°53'0 0.0
2017-Feb-18 15:33N 32°23' W 090°53'1 0.8
2017-Feb-18 14:34N 32°22' W 090°53'3 2.7
2017-Feb-18 13:34N 32°20' W 090°54'0 0.0
2017-Feb-18 12:33N 32°20' W 090°54'2 1.6
2017-Feb-18 11:33N 32°18' W 090°55'0 0.4
2017-Feb-18 10:33N 32°18' W 090°55'0 0.0
2017-Feb-18 09:33N 32°18' W 090°55'0 0.4
2017-Feb-18 08:33N 32°18' W 090°55'0 0.1
2017-Feb-18 07:33N 32°18' W 090°55'0 0.4
2017-Feb-18 06:33N 32°18' W 090°55'0 0.5
2017-Feb-18 05:33N 32°18' W 090°56'3 3.3
2017-Feb-18 04:33N 32°21' W 090°54'1 1.2
2017-Feb-18 03:33N 32°22' W 090°53'2 1.5
2017-Feb-18 02:33N 32°23' W 090°53'1 0.5
2017-Feb-18 01:33N 32°23' W 090°54'2 1.5
2017-Feb-18 00:33N 32°22' W 090°53'3 2.2
2017-Feb-17 23:17N 32°20' W 090°54'4 4.8
2017-Feb-17 22:33N 32°23' W 090°53'0 0.3
2017-Feb-17 21:33N 32°23' W 090°53'0 0.5
2017-Feb-17 20:33N 32°23' W 090°53'0 0.1
2017-Feb-17 19:33N 32°23' W 090°53'0 0.1
2017-Feb-17 18:33N 32°23' W 090°53'4 3.5
2017-Feb-17 17:33N 32°20' W 090°54'0 0.0
2017-Feb-17 16:34N 32°20' W 090°54'0 0.0
2017-Feb-17 15:34N 32°20' W 090°54'0 0.0
2017-Feb-17 14:33N 32°20' W 090°54'0 0.0
2017-Feb-17 13:34N 32°20' W 090°54'0 0.0
2017-Feb-17 12:33N 32°20' W 090°54'0 0.0
2017-Feb-17 10:33N 32°20' W 090°54'4 3.5
2017-Feb-17 09:33N 32°23' W 090°55'0 0.0
2017-Feb-17 08:33N 32°23' W 090°55'1 0.9
2017-Feb-17 07:33N 32°23' W 090°54'1 0.7
2017-Feb-17 06:33N 32°23' W 090°53'0 0.0
2017-Feb-17 05:33N 32°23' W 090°53'1 0.5
2017-Feb-17 04:33N 32°23' W 090°54'1 1.2
2017-Feb-17 03:33N 32°22' W 090°53'1 0.9
2017-Feb-17 02:33N 32°23' W 090°53'0 0.1
2017-Feb-17 01:33N 32°23' W 090°53'2 2.0
2017-Feb-17 00:33N 32°21' W 090°53'1 1.1
2017-Feb-16 23:15N 32°20' W 090°54'3 4.6
2017-Feb-16 22:33N 32°23' W 090°53'1 0.6
2017-Feb-16 21:33N 32°22' W 090°53'1 1.5
2017-Feb-16 20:33N 32°23' W 090°55'2 2.1
2017-Feb-16 19:33N 32°22' W 090°53'0 0.0
2017-Feb-16 18:33N 32°22' W 090°53'2 1.7
2017-Feb-16 17:33N 32°23' W 090°54'2 1.6
2017-Feb-16 16:33N 32°23' W 090°53'1 0.9
2017-Feb-16 15:33N 32°23' W 090°53'1 0.9
2017-Feb-16 14:33N 32°22' W 090°53'1 0.9
2017-Feb-16 13:33N 32°23' W 090°53'3 2.8
2017-Feb-16 12:33N 32°20' W 090°54'0 0.1
2017-Feb-16 11:33N 32°21' W 090°54'0 0.1
2017-Feb-16 10:33N 32°21' W 090°54'1 1.1
2017-Feb-16 09:33N 32°20' W 090°54'1 1.2
2017-Feb-16 08:33N 32°18' W 090°55'4 3.6
2017-Feb-16 07:33N 32°22' W 090°53'0 0.0
2017-Feb-16 06:33N 32°22' W 090°53'0 0.0
2017-Feb-16 05:33N 32°22' W 090°53'0 0.0
2017-Feb-16 04:33N 32°22' W 090°53'0 0.0
2017-Feb-16 03:33N 32°22' W 090°53'0 0.0
2017-Feb-16 02:33N 32°22' W 090°53'0 0.0
2017-Feb-16 01:33N 32°22' W 090°53'1 1.0
2017-Feb-16 00:33N 32°21' W 090°53'1 0.6
2017-Feb-15 23:34N 32°20' W 090°54'2 1.6
2017-Feb-15 22:34N 32°22' W 090°53'3 3.2
2017-Feb-15 21:34N 32°19' W 090°54'1 0.8
2017-Feb-15 20:34N 32°18' W 090°55'  
Track history (hours):
 
Tides and Currents Weather Stations Pressure Air Temp Water Temp Dewpoint Dewpoint Depression Visibility Wind Speed Wind Dir Waves Ship Positions

Scout

Owner: ERGON MARINE & INDUSTRIAL SUPPLY, VICKSBURG, MS. More information available from US FCC via Universal Licensing System.

Last reported at 2017-Feb-25 20:33 UTC. Time now 2017-Feb-25 20:48 UTC.
Position N 32°20' W 090°54'.

Length 14 m.

Type: Towing. MMSI: 367402890.

Date/timePositionNaut miles runAvg speedWind from/ knotsBaromVisibWave heightAir tempDewpointWater temp
2017-Feb-25 20:33N 32°20' W 090°54'0 0.0
2017-Feb-25 19:34N 32°20' W 090°54'1 1.5
2017-Feb-25 18:33N 32°18' W 090°55'1 0.9
2017-Feb-25 17:33N 32°19' W 090°54'2 1.5
2017-Feb-25 16:34N 32°18' W 090°55'2 2.2
2017-Feb-25 15:33N 32°20' W 090°54'1 0.8
2017-Feb-25 14:33N 32°20' W 090°54'0 0.0
2017-Feb-25 10:33N 32°20' W 090°54'1 0.9
2017-Feb-25 09:33N 32°21' W 090°55'2 1.5
2017-Feb-25 08:34N 32°20' W 090°54'0 0.0
2017-Feb-25 07:33N 32°20' W 090°54'0 0.0
2017-Feb-25 06:33N 32°20' W 090°54'0 0.4
2017-Feb-25 05:33N 32°19' W 090°54'0 0.3
2017-Feb-25 04:33N 32°20' W 090°54'  
2017-Feb-18 22:33N 32°20' W 090°54'1 0.8
2017-Feb-18 21:33N 32°21' W 090°53'1 1.2
2017-Feb-18 20:34N 32°22' W 090°53'1 1.2
2017-Feb-18 19:33N 32°23' W 090°53'0 0.0
2017-Feb-18 18:33N 32°23' W 090°53'0 0.0
2017-Feb-18 17:33N 32°23' W 090°53'0 0.0
2017-Feb-18 16:33N 32°23' W 090°53'0 0.0
2017-Feb-18 15:33N 32°23' W 090°53'1 0.8
2017-Feb-18 14:34N 32°22' W 090°53'3 2.7
2017-Feb-18 13:34N 32°20' W 090°54'0 0.0
2017-Feb-18 12:33N 32°20' W 090°54'2 1.6
2017-Feb-18 11:33N 32°18' W 090°55'0 0.4
2017-Feb-18 10:33N 32°18' W 090°55'0 0.0
2017-Feb-18 09:33N 32°18' W 090°55'0 0.4
2017-Feb-18 08:33N 32°18' W 090°55'0 0.1
2017-Feb-18 07:33N 32°18' W 090°55'0 0.4
2017-Feb-18 06:33N 32°18' W 090°55'0 0.5
2017-Feb-18 05:33N 32°18' W 090°56'3 3.3
2017-Feb-18 04:33N 32°21' W 090°54'1 1.2
2017-Feb-18 03:33N 32°22' W 090°53'2 1.5
2017-Feb-18 02:33N 32°23' W 090°53'1 0.5
2017-Feb-18 01:33N 32°23' W 090°54'2 1.5
2017-Feb-18 00:33N 32°22' W 090°53'3 2.2
2017-Feb-17 23:17N 32°20' W 090°54'4 4.8
2017-Feb-17 22:33N 32°23' W 090°53'0 0.3
2017-Feb-17 21:33N 32°23' W 090°53'0 0.5
2017-Feb-17 20:33N 32°23' W 090°53'0 0.1
2017-Feb-17 19:33N 32°23' W 090°53'0 0.1
2017-Feb-17 18:33N 32°23' W 090°53'4 3.5
2017-Feb-17 17:33N 32°20' W 090°54'0 0.0
2017-Feb-17 16:34N 32°20' W 090°54'0 0.0
2017-Feb-17 15:34N 32°20' W 090°54'0 0.0
2017-Feb-17 14:33N 32°20' W 090°54'0 0.0
2017-Feb-17 13:34N 32°20' W 090°54'0 0.0
2017-Feb-17 12:33N 32°20' W 090°54'0 0.0
2017-Feb-17 10:33N 32°20' W 090°54'4 3.5
2017-Feb-17 09:33N 32°23' W 090°55'0 0.0
2017-Feb-17 08:33N 32°23' W 090°55'1 0.9
2017-Feb-17 07:33N 32°23' W 090°54'1 0.7
2017-Feb-17 06:33N 32°23' W 090°53'0 0.0
2017-Feb-17 05:33N 32°23' W 090°53'1 0.5
2017-Feb-17 04:33N 32°23' W 090°54'1 1.2
2017-Feb-17 03:33N 32°22' W 090°53'1 0.9
2017-Feb-17 02:33N 32°23' W 090°53'0 0.1
2017-Feb-17 01:33N 32°23' W 090°53'2 2.0
2017-Feb-17 00:33N 32°21' W 090°53'1 1.1
2017-Feb-16 23:15N 32°20' W 090°54'3 4.6
2017-Feb-16 22:33N 32°23' W 090°53'1 0.6
2017-Feb-16 21:33N 32°22' W 090°53'1 1.5
2017-Feb-16 20:33N 32°23' W 090°55'2 2.1
2017-Feb-16 19:33N 32°22' W 090°53'0 0.0
2017-Feb-16 18:33N 32°22' W 090°53'2 1.7
2017-Feb-16 17:33N 32°23' W 090°54'2 1.6
2017-Feb-16 16:33N 32°23' W 090°53'1 0.9
2017-Feb-16 15:33N 32°23' W 090°53'1 0.9
2017-Feb-16 14:33N 32°22' W 090°53'1 0.9
2017-Feb-16 13:33N 32°23' W 090°53'3 2.8
2017-Feb-16 12:33N 32°20' W 090°54'0 0.1
2017-Feb-16 11:33N 32°21' W 090°54'0 0.1
2017-Feb-16 10:33N 32°21' W 090°54'1 1.1
2017-Feb-16 09:33N 32°20' W 090°54'1 1.2
2017-Feb-16 08:33N 32°18' W 090°55'4 3.6
2017-Feb-16 07:33N 32°22' W 090°53'0 0.0
2017-Feb-16 06:33N 32°22' W 090°53'0 0.0
2017-Feb-16 05:33N 32°22' W 090°53'0 0.0
2017-Feb-16 04:33N 32°22' W 090°53'0 0.0
2017-Feb-16 03:33N 32°22' W 090°53'0 0.0
2017-Feb-16 02:33N 32°22' W 090°53'0 0.0
2017-Feb-16 01:33N 32°22' W 090°53'1 1.0
2017-Feb-16 00:33N 32°21' W 090°53'1 0.6
2017-Feb-15 23:34N 32°20' W 090°54'2 1.6
2017-Feb-15 22:34N 32°22' W 090°53'3 3.2
2017-Feb-15 21:34N 32°19' W 090°54'1 0.8
2017-Feb-15 20:34N 32°18' W 090°55'  

Dump ship's entire track history